sensor_id;sensor_type;location;lat;lon;timestamp;P1;durP1;ratioP1;P2;durP2;ratioP2
19189;SDS011;9727;50.200;19.038;2023-08-24T00:00:57;9.73;;;5.60;;
19189;SDS011;9727;50.200;19.038;2023-08-24T00:03:24;12.90;;;6.32;;
19189;SDS011;9727;50.200;19.038;2023-08-24T00:05:51;11.38;;;6.13;;
19189;SDS011;9727;50.200;19.038;2023-08-24T00:08:19;9.98;;;6.50;;
19189;SDS011;9727;50.200;19.038;2023-08-24T00:10:45;9.48;;;6.03;;
19189;SDS011;9727;50.200;19.038;2023-08-24T00:13:12;12.00;;;7.07;;
19189;SDS011;9727;50.200;19.038;2023-08-24T00:15:39;9.68;;;6.78;;
19189;SDS011;9727;50.200;19.038;2023-08-24T00:18:06;9.82;;;6.32;;
19189;SDS011;9727;50.200;19.038;2023-08-24T00:20:32;13.27;;;7.68;;
19189;SDS011;9727;50.200;19.038;2023-08-24T00:23:06;12.43;;;7.77;;
19189;SDS011;9727;50.200;19.038;2023-08-24T00:25:40;12.30;;;7.43;;
19189;SDS011;9727;50.200;19.038;2023-08-24T00:28:06;15.43;;;8.15;;
19189;SDS011;9727;50.200;19.038;2023-08-24T00:30:38;11.80;;;7.90;;
19189;SDS011;9727;50.200;19.038;2023-08-24T00:33:04;15.73;;;7.60;;
19189;SDS011;9727;50.200;19.038;2023-08-24T00:35:31;8.70;;;6.72;;
19189;SDS011;9727;50.200;19.038;2023-08-24T00:37:58;9.98;;;6.25;;
19189;SDS011;9727;50.200;19.038;2023-08-24T00:40:25;11.20;;;7.40;;
19189;SDS011;9727;50.200;19.038;2023-08-24T00:42:53;10.57;;;7.38;;
19189;SDS011;9727;50.200;19.038;2023-08-24T00:45:19;9.43;;;6.73;;
19189;SDS011;9727;50.200;19.038;2023-08-24T00:47:48;12.18;;;7.20;;
19189;SDS011;9727;50.200;19.038;2023-08-24T00:50:15;11.47;;;8.03;;
19189;SDS011;9727;50.200;19.038;2023-08-24T00:52:42;11.67;;;7.70;;
19189;SDS011;9727;50.200;19.038;2023-08-24T00:55:09;13.68;;;8.05;;
19189;SDS011;9727;50.200;19.038;2023-08-24T00:57:41;10.57;;;7.30;;
19189;SDS011;9727;50.200;19.038;2023-08-24T01:00:10;13.23;;;8.03;;
19189;SDS011;9727;50.200;19.038;2023-08-24T01:02:39;11.90;;;8.40;;
19189;SDS011;9727;50.200;19.038;2023-08-24T01:05:05;12.50;;;8.63;;
19189;SDS011;9727;50.200;19.038;2023-08-24T01:07:32;12.40;;;7.93;;
19189;SDS011;9727;50.200;19.038;2023-08-24T01:10:03;15.50;;;9.43;;
19189;SDS011;9727;50.200;19.038;2023-08-24T01:12:32;12.47;;;8.57;;
19189;SDS011;9727;50.200;19.038;2023-08-24T01:15:05;11.47;;;8.27;;
19189;SDS011;9727;50.200;19.038;2023-08-24T01:17:42;13.37;;;7.90;;
19189;SDS011;9727;50.200;19.038;2023-08-24T01:20:09;12.67;;;8.47;;
19189;SDS011;9727;50.200;19.038;2023-08-24T01:22:37;16.27;;;8.60;;
19189;SDS011;9727;50.200;19.038;2023-08-24T01:25:10;13.87;;;7.93;;
19189;SDS011;9727;50.200;19.038;2023-08-24T01:27:39;12.73;;;8.20;;
19189;SDS011;9727;50.200;19.038;2023-08-24T01:30:07;10.83;;;7.97;;
19189;SDS011;9727;50.200;19.038;2023-08-24T01:32:37;10.47;;;8.30;;
19189;SDS011;9727;50.200;19.038;2023-08-24T01:35:05;16.77;;;8.37;;
19189;SDS011;9727;50.200;19.038;2023-08-24T01:37:32;12.00;;;7.60;;
19189;SDS011;9727;50.200;19.038;2023-08-24T01:40:00;11.87;;;8.30;;
19189;SDS011;9727;50.200;19.038;2023-08-24T01:42:43;12.07;;;8.20;;
19189;SDS011;9727;50.200;19.038;2023-08-24T01:45:12;13.30;;;8.57;;
19189;SDS011;9727;50.200;19.038;2023-08-24T01:47:40;11.93;;;8.00;;
19189;SDS011;9727;50.200;19.038;2023-08-24T01:50:07;10.07;;;7.33;;
19189;SDS011;9727;50.200;19.038;2023-08-24T01:52:39;12.50;;;7.53;;
19189;SDS011;9727;50.200;19.038;2023-08-24T01:55:06;11.83;;;7.43;;
19189;SDS011;9727;50.200;19.038;2023-08-24T01:57:40;10.57;;;7.07;;
19189;SDS011;9727;50.200;19.038;2023-08-24T02:00:07;10.27;;;7.00;;
19189;SDS011;9727;50.200;19.038;2023-08-24T02:02:41;11.37;;;7.60;;
19189;SDS011;9727;50.200;19.038;2023-08-24T02:05:08;11.93;;;7.23;;
19189;SDS011;9727;50.200;19.038;2023-08-24T02:07:38;8.67;;;7.10;;
19189;SDS011;9727;50.200;19.038;2023-08-24T02:10:06;10.67;;;7.17;;
19189;SDS011;9727;50.200;19.038;2023-08-24T02:12:37;14.83;;;8.10;;
19189;SDS011;9727;50.200;19.038;2023-08-24T02:15:04;10.47;;;7.23;;
19189;SDS011;9727;50.200;19.038;2023-08-24T02:17:30;8.90;;;6.50;;
19189;SDS011;9727;50.200;19.038;2023-08-24T02:20:01;10.13;;;7.17;;
19189;SDS011;9727;50.200;19.038;2023-08-24T02:22:30;11.77;;;7.10;;
19189;SDS011;9727;50.200;19.038;2023-08-24T02:24:57;11.33;;;6.43;;
19189;SDS011;9727;50.200;19.038;2023-08-24T02:27:23;9.67;;;6.43;;
19189;SDS011;9727;50.200;19.038;2023-08-24T02:29:50;9.87;;;6.97;;
19189;SDS011;9727;50.200;19.038;2023-08-24T02:32:16;9.80;;;6.80;;
19189;SDS011;9727;50.200;19.038;2023-08-24T02:34:43;13.40;;;7.40;;
19189;SDS011;9727;50.200;19.038;2023-08-24T02:37:11;9.50;;;6.73;;
19189;SDS011;9727;50.200;19.038;2023-08-24T02:39:38;11.10;;;7.90;;
19189;SDS011;9727;50.200;19.038;2023-08-24T02:42:05;8.80;;;6.43;;
19189;SDS011;9727;50.200;19.038;2023-08-24T02:44:31;9.83;;;7.03;;
19189;SDS011;9727;50.200;19.038;2023-08-24T02:47:01;11.00;;;7.37;;
19189;SDS011;9727;50.200;19.038;2023-08-24T02:49:28;8.37;;;6.93;;
19189;SDS011;9727;50.200;19.038;2023-08-24T02:51:55;10.40;;;7.57;;
19189;SDS011;9727;50.200;19.038;2023-08-24T02:54:23;10.40;;;7.27;;
19189;SDS011;9727;50.200;19.038;2023-08-24T02:56:49;10.07;;;6.67;;
19189;SDS011;9727;50.200;19.038;2023-08-24T02:59:16;10.20;;;6.60;;
19189;SDS011;9727;50.200;19.038;2023-08-24T03:01:43;9.50;;;6.10;;
19189;SDS011;9727;50.200;19.038;2023-08-24T03:04:10;9.67;;;6.40;;
19189;SDS011;9727;50.200;19.038;2023-08-24T03:06:40;9.33;;;6.60;;
19189;SDS011;9727;50.200;19.038;2023-08-24T03:09:06;10.23;;;7.27;;
19189;SDS011;9727;50.200;19.038;2023-08-24T03:11:39;10.93;;;5.70;;
19189;SDS011;9727;50.200;19.038;2023-08-24T03:14:05;7.47;;;6.00;;
19189;SDS011;9727;50.200;19.038;2023-08-24T03:16:32;10.50;;;6.83;;
19189;SDS011;9727;50.200;19.038;2023-08-24T03:19:01;11.63;;;7.10;;
19189;SDS011;9727;50.200;19.038;2023-08-24T03:21:28;9.73;;;6.37;;
19189;SDS011;9727;50.200;19.038;2023-08-24T03:23:55;10.13;;;6.27;;
19189;SDS011;9727;50.200;19.038;2023-08-24T03:26:22;8.60;;;5.83;;
19189;SDS011;9727;50.200;19.038;2023-08-24T03:28:51;8.83;;;6.27;;
19189;SDS011;9727;50.200;19.038;2023-08-24T03:31:17;9.43;;;6.83;;
19189;SDS011;9727;50.200;19.038;2023-08-24T03:33:45;9.00;;;5.90;;
19189;SDS011;9727;50.200;19.038;2023-08-24T03:36:11;9.73;;;6.50;;
19189;SDS011;9727;50.200;19.038;2023-08-24T03:38:38;10.37;;;6.30;;
19189;SDS011;9727;50.200;19.038;2023-08-24T03:41:04;10.40;;;6.23;;
19189;SDS011;9727;50.200;19.038;2023-08-24T03:43:32;10.33;;;6.97;;
19189;SDS011;9727;50.200;19.038;2023-08-24T03:46:04;10.90;;;7.17;;
19189;SDS011;9727;50.200;19.038;2023-08-24T03:48:31;10.57;;;7.20;;
19189;SDS011;9727;50.200;19.038;2023-08-24T03:50:58;8.87;;;6.77;;
19189;SDS011;9727;50.200;19.038;2023-08-24T03:53:25;10.63;;;7.17;;
19189;SDS011;9727;50.200;19.038;2023-08-24T03:55:51;11.57;;;6.77;;
19189;SDS011;9727;50.200;19.038;2023-08-24T03:58:18;11.50;;;7.17;;
19189;SDS011;9727;50.200;19.038;2023-08-24T04:00:45;8.70;;;6.63;;
19189;SDS011;9727;50.200;19.038;2023-08-24T04:03:13;9.40;;;6.43;;
19189;SDS011;9727;50.200;19.038;2023-08-24T04:05:40;10.23;;;6.87;;
19189;SDS011;9727;50.200;19.038;2023-08-24T04:08:07;9.93;;;6.73;;
19189;SDS011;9727;50.200;19.038;2023-08-24T04:10:40;11.47;;;7.00;;
19189;SDS011;9727;50.200;19.038;2023-08-24T04:13:07;8.30;;;6.53;;
19189;SDS011;9727;50.200;19.038;2023-08-24T04:15:38;9.83;;;6.43;;
19189;SDS011;9727;50.200;19.038;2023-08-24T04:18:05;13.47;;;7.40;;
19189;SDS011;9727;50.200;19.038;2023-08-24T04:20:41;9.47;;;7.03;;
19189;SDS011;9727;50.200;19.038;2023-08-24T04:23:07;9.70;;;7.13;;
19189;SDS011;9727;50.200;19.038;2023-08-24T04:25:39;13.23;;;7.00;;
19189;SDS011;9727;50.200;19.038;2023-08-24T04:28:05;11.77;;;6.93;;
19189;SDS011;9727;50.200;19.038;2023-08-24T04:30:32;12.90;;;7.30;;
19189;SDS011;9727;50.200;19.038;2023-08-24T04:33:04;12.27;;;7.23;;
19189;SDS011;9727;50.200;19.038;2023-08-24T04:35:42;11.00;;;7.53;;
19189;SDS011;9727;50.200;19.038;2023-08-24T04:38:09;11.37;;;7.33;;
19189;SDS011;9727;50.200;19.038;2023-08-24T04:40:48;11.20;;;6.70;;
19189;SDS011;9727;50.200;19.038;2023-08-24T04:43:15;11.00;;;7.17;;
19189;SDS011;9727;50.200;19.038;2023-08-24T04:45:42;15.10;;;7.20;;
19189;SDS011;9727;50.200;19.038;2023-08-24T04:48:11;11.10;;;6.90;;
19189;SDS011;9727;50.200;19.038;2023-08-24T04:50:43;11.53;;;7.03;;
19189;SDS011;9727;50.200;19.038;2023-08-24T04:53:10;9.63;;;6.90;;
19189;SDS011;9727;50.200;19.038;2023-08-24T04:55:37;9.03;;;7.03;;
19189;SDS011;9727;50.200;19.038;2023-08-24T04:58:03;9.47;;;6.90;;
19189;SDS011;9727;50.200;19.038;2023-08-24T05:00:30;10.47;;;7.00;;
19189;SDS011;9727;50.200;19.038;2023-08-24T05:02:59;12.80;;;7.67;;
19189;SDS011;9727;50.200;19.038;2023-08-24T05:05:26;16.33;;;9.23;;
19189;SDS011;9727;50.200;19.038;2023-08-24T05:07:56;18.87;;;11.23;;
19189;SDS011;9727;50.200;19.038;2023-08-24T05:10:23;29.10;;;16.50;;
19189;SDS011;9727;50.200;19.038;2023-08-24T05:12:49;26.20;;;15.73;;
19189;SDS011;9727;50.200;19.038;2023-08-24T05:15:16;21.40;;;14.77;;
19189;SDS011;9727;50.200;19.038;2023-08-24T05:17:48;21.33;;;13.53;;
19189;SDS011;9727;50.200;19.038;2023-08-24T05:20:15;17.07;;;11.53;;
19189;SDS011;9727;50.200;19.038;2023-08-24T05:22:41;17.03;;;11.00;;
19189;SDS011;9727;50.200;19.038;2023-08-24T05:25:10;18.53;;;12.10;;
19189;SDS011;9727;50.200;19.038;2023-08-24T05:27:37;17.00;;;11.20;;
19189;SDS011;9727;50.200;19.038;2023-08-24T05:30:04;16.30;;;11.17;;
19189;SDS011;9727;50.200;19.038;2023-08-24T05:32:31;17.00;;;11.77;;
19189;SDS011;9727;50.200;19.038;2023-08-24T05:35:05;17.60;;;10.95;;
19189;SDS011;9727;50.200;19.038;2023-08-24T05:37:32;16.07;;;11.40;;
19189;SDS011;9727;50.200;19.038;2023-08-24T05:40:07;19.47;;;12.33;;
19189;SDS011;9727;50.200;19.038;2023-08-24T05:42:39;20.30;;;12.57;;
19189;SDS011;9727;50.200;19.038;2023-08-24T05:45:06;18.30;;;12.87;;
19189;SDS011;9727;50.200;19.038;2023-08-24T05:47:33;17.57;;;12.70;;
19189;SDS011;9727;50.200;19.038;2023-08-24T05:50:05;17.40;;;12.50;;
19189;SDS011;9727;50.200;19.038;2023-08-24T05:52:32;189.90;;;29.63;;
19189;SDS011;9727;50.200;19.038;2023-08-24T05:55:04;25.23;;;12.40;;
19189;SDS011;9727;50.200;19.038;2023-08-24T05:57:31;15.23;;;10.60;;
19189;SDS011;9727;50.200;19.038;2023-08-24T05:59:59;20.95;;;11.93;;
19189;SDS011;9727;50.200;19.038;2023-08-24T06:02:26;15.77;;;9.93;;
19189;SDS011;9727;50.200;19.038;2023-08-24T06:04:52;14.05;;;9.50;;
19189;SDS011;9727;50.200;19.038;2023-08-24T06:07:19;17.23;;;10.27;;
19189;SDS011;9727;50.200;19.038;2023-08-24T06:09:46;15.10;;;9.63;;
19189;SDS011;9727;50.200;19.038;2023-08-24T06:12:13;13.48;;;9.40;;
19189;SDS011;9727;50.200;19.038;2023-08-24T06:14:40;12.70;;;9.45;;
19189;SDS011;9727;50.200;19.038;2023-08-24T06:17:08;11.80;;;8.50;;
19189;SDS011;9727;50.200;19.038;2023-08-24T06:19:38;12.77;;;9.20;;
19189;SDS011;9727;50.200;19.038;2023-08-24T06:22:06;14.25;;;9.02;;
19189;SDS011;9727;50.200;19.038;2023-08-24T06:24:34;14.07;;;8.57;;
19189;SDS011;9727;50.200;19.038;2023-08-24T06:27:04;13.32;;;8.93;;
19189;SDS011;9727;50.200;19.038;2023-08-24T06:29:30;11.65;;;8.90;;
19189;SDS011;9727;50.200;19.038;2023-08-24T06:31:57;10.95;;;8.80;;
19189;SDS011;9727;50.200;19.038;2023-08-24T06:34:26;12.43;;;8.73;;
19189;SDS011;9727;50.200;19.038;2023-08-24T06:36:52;17.23;;;9.88;;
19189;SDS011;9727;50.200;19.038;2023-08-24T06:39:19;17.33;;;11.70;;
19189;SDS011;9727;50.200;19.038;2023-08-24T06:41:45;14.30;;;9.63;;
19189;SDS011;9727;50.200;19.038;2023-08-24T06:44:12;15.30;;;8.82;;
19189;SDS011;9727;50.200;19.038;2023-08-24T06:46:39;12.52;;;9.57;;
19189;SDS011;9727;50.200;19.038;2023-08-24T06:49:05;14.60;;;9.40;;
19189;SDS011;9727;50.200;19.038;2023-08-24T06:51:37;12.57;;;8.68;;
19189;SDS011;9727;50.200;19.038;2023-08-24T06:54:04;11.27;;;8.98;;
19189;SDS011;9727;50.200;19.038;2023-08-24T06:56:30;13.88;;;9.52;;
19189;SDS011;9727;50.200;19.038;2023-08-24T06:58:57;18.48;;;10.10;;
19189;SDS011;9727;50.200;19.038;2023-08-24T07:01:24;13.63;;;9.77;;
19189;SDS011;9727;50.200;19.038;2023-08-24T07:03:51;13.25;;;8.50;;
19189;SDS011;9727;50.200;19.038;2023-08-24T07:06:17;13.77;;;8.63;;
19189;SDS011;9727;50.200;19.038;2023-08-24T07:08:46;11.90;;;8.18;;
19189;SDS011;9727;50.200;19.038;2023-08-24T07:11:12;13.77;;;8.68;;
19189;SDS011;9727;50.200;19.038;2023-08-24T07:13:40;13.02;;;8.07;;
19189;SDS011;9727;50.200;19.038;2023-08-24T07:16:06;10.50;;;7.22;;
19189;SDS011;9727;50.200;19.038;2023-08-24T07:18:32;11.68;;;8.32;;
19189;SDS011;9727;50.200;19.038;2023-08-24T07:21:02;12.70;;;7.82;;
19189;SDS011;9727;50.200;19.038;2023-08-24T07:23:28;9.23;;;7.22;;
19189;SDS011;9727;50.200;19.038;2023-08-24T07:25:57;10.75;;;7.20;;
19189;SDS011;9727;50.200;19.038;2023-08-24T07:28:24;12.13;;;7.72;;
19189;SDS011;9727;50.200;19.038;2023-08-24T07:30:50;9.77;;;6.85;;
19189;SDS011;9727;50.200;19.038;2023-08-24T07:33:20;10.25;;;7.10;;
19189;SDS011;9727;50.200;19.038;2023-08-24T07:35:47;9.70;;;6.82;;
19189;SDS011;9727;50.200;19.038;2023-08-24T07:38:14;11.95;;;6.68;;
19189;SDS011;9727;50.200;19.038;2023-08-24T07:40:41;9.52;;;6.05;;
19189;SDS011;9727;50.200;19.038;2023-08-24T07:43:09;7.78;;;5.60;;
19189;SDS011;9727;50.200;19.038;2023-08-24T07:45:36;10.02;;;5.32;;
19189;SDS011;9727;50.200;19.038;2023-08-24T07:48:04;9.45;;;4.80;;
19189;SDS011;9727;50.200;19.038;2023-08-24T07:50:30;6.75;;;4.97;;
19189;SDS011;9727;50.200;19.038;2023-08-24T07:52:57;6.65;;;4.32;;
19189;SDS011;9727;50.200;19.038;2023-08-24T07:55:24;6.50;;;5.03;;
19189;SDS011;9727;50.200;19.038;2023-08-24T07:57:50;10.02;;;5.30;;
19189;SDS011;9727;50.200;19.038;2023-08-24T08:00:19;7.78;;;4.45;;
19189;SDS011;9727;50.200;19.038;2023-08-24T08:02:45;6.63;;;4.70;;
19189;SDS011;9727;50.200;19.038;2023-08-24T08:05:12;9.13;;;4.15;;
19189;SDS011;9727;50.200;19.038;2023-08-24T08:07:38;6.60;;;4.20;;
19189;SDS011;9727;50.200;19.038;2023-08-24T08:10:05;9.63;;;4.88;;
19189;SDS011;9727;50.200;19.038;2023-08-24T08:12:32;6.90;;;4.85;;
19189;SDS011;9727;50.200;19.038;2023-08-24T08:15:00;6.47;;;3.72;;
19189;SDS011;9727;50.200;19.038;2023-08-24T08:17:29;6.95;;;4.35;;
19189;SDS011;9727;50.200;19.038;2023-08-24T08:20:00;6.93;;;4.47;;
19189;SDS011;9727;50.200;19.038;2023-08-24T08:22:27;5.70;;;3.80;;
19189;SDS011;9727;50.200;19.038;2023-08-24T08:24:54;5.65;;;4.22;;
19189;SDS011;9727;50.200;19.038;2023-08-24T08:27:21;7.05;;;4.43;;
19189;SDS011;9727;50.200;19.038;2023-08-24T08:29:48;6.72;;;3.70;;
19189;SDS011;9727;50.200;19.038;2023-08-24T08:32:14;8.57;;;4.43;;
19189;SDS011;9727;50.200;19.038;2023-08-24T08:34:43;8.70;;;4.40;;
19189;SDS011;9727;50.200;19.038;2023-08-24T08:37:10;5.68;;;3.85;;
19189;SDS011;9727;50.200;19.038;2023-08-24T08:39:36;6.97;;;3.90;;
19189;SDS011;9727;50.200;19.038;2023-08-24T08:42:11;7.88;;;4.38;;
19189;SDS011;9727;50.200;19.038;2023-08-24T08:44:38;7.95;;;4.40;;
19189;SDS011;9727;50.200;19.038;2023-08-24T08:47:04;5.47;;;3.72;;
19189;SDS011;9727;50.200;19.038;2023-08-24T08:49:39;10.10;;;4.60;;
19189;SDS011;9727;50.200;19.038;2023-08-24T08:52:09;7.88;;;4.30;;
19189;SDS011;9727;50.200;19.038;2023-08-24T08:54:37;7.05;;;4.18;;
19189;SDS011;9727;50.200;19.038;2023-08-24T08:57:05;9.75;;;4.70;;
19189;SDS011;9727;50.200;19.038;2023-08-24T08:59:32;8.30;;;4.53;;
19189;SDS011;9727;50.200;19.038;2023-08-24T09:02:04;5.97;;;3.92;;
19189;SDS011;9727;50.200;19.038;2023-08-24T09:04:32;8.48;;;4.75;;
19189;SDS011;9727;50.200;19.038;2023-08-24T09:07:04;9.13;;;4.97;;
19189;SDS011;9727;50.200;19.038;2023-08-24T09:09:37;8.32;;;4.38;;
19189;SDS011;9727;50.200;19.038;2023-08-24T09:12:05;6.68;;;4.22;;
19189;SDS011;9727;50.200;19.038;2023-08-24T09:14:32;7.32;;;3.97;;
19189;SDS011;9727;50.200;19.038;2023-08-24T09:17:06;8.25;;;4.30;;
19189;SDS011;9727;50.200;19.038;2023-08-24T09:19:39;6.22;;;3.80;;
19189;SDS011;9727;50.200;19.038;2023-08-24T09:22:06;5.47;;;3.53;;
19189;SDS011;9727;50.200;19.038;2023-08-24T09:24:41;8.18;;;4.10;;
19189;SDS011;9727;50.200;19.038;2023-08-24T09:27:13;7.93;;;3.95;;
19189;SDS011;9727;50.200;19.038;2023-08-24T09:29:40;4.78;;;3.53;;
19189;SDS011;9727;50.200;19.038;2023-08-24T09:32:07;6.35;;;4.00;;
19189;SDS011;9727;50.200;19.038;2023-08-24T09:34:41;9.43;;;4.22;;
19189;SDS011;9727;50.200;19.038;2023-08-24T09:37:12;6.80;;;4.03;;
19189;SDS011;9727;50.200;19.038;2023-08-24T09:39:41;5.72;;;3.70;;
19189;SDS011;9727;50.200;19.038;2023-08-24T09:42:07;6.45;;;3.58;;
19189;SDS011;9727;50.200;19.038;2023-08-24T09:44:38;8.90;;;3.45;;
19189;SDS011;9727;50.200;19.038;2023-08-24T09:47:09;7.95;;;3.22;;
19189;SDS011;9727;50.200;19.038;2023-08-24T09:49:37;5.22;;;3.38;;
19189;SDS011;9727;50.200;19.038;2023-08-24T09:52:06;5.72;;;3.50;;
19189;SDS011;9727;50.200;19.038;2023-08-24T09:54:34;5.28;;;3.15;;
19189;SDS011;9727;50.200;19.038;2023-08-24T09:57:05;5.45;;;3.42;;
19189;SDS011;9727;50.200;19.038;2023-08-24T09:59:36;7.10;;;3.70;;
19189;SDS011;9727;50.200;19.038;2023-08-24T10:02:07;4.93;;;3.08;;
19189;SDS011;9727;50.200;19.038;2023-08-24T10:04:37;5.65;;;3.50;;
19189;SDS011;9727;50.200;19.038;2023-08-24T10:07:08;6.47;;;3.80;;
19189;SDS011;9727;50.200;19.038;2023-08-24T10:09:38;6.55;;;3.45;;
19189;SDS011;9727;50.200;19.038;2023-08-24T10:12:06;6.47;;;3.47;;
19189;SDS011;9727;50.200;19.038;2023-08-24T10:14:39;5.97;;;3.67;;
19189;SDS011;9727;50.200;19.038;2023-08-24T10:17:09;6.45;;;3.38;;
19189;SDS011;9727;50.200;19.038;2023-08-24T10:19:36;7.82;;;3.70;;
19189;SDS011;9727;50.200;19.038;2023-08-24T10:22:04;7.13;;;3.70;;
19189;SDS011;9727;50.200;19.038;2023-08-24T10:24:32;5.88;;;3.53;;
19189;SDS011;9727;50.200;19.038;2023-08-24T10:27:00;7.82;;;4.03;;
19189;SDS011;9727;50.200;19.038;2023-08-24T10:29:30;5.13;;;3.22;;
19189;SDS011;9727;50.200;19.038;2023-08-24T10:31:56;6.72;;;3.53;;
19189;SDS011;9727;50.200;19.038;2023-08-24T10:34:23;5.25;;;3.50;;
19189;SDS011;9727;50.200;19.038;2023-08-24T10:36:50;7.30;;;3.58;;
19189;SDS011;9727;50.200;19.038;2023-08-24T10:39:17;7.15;;;3.88;;
19189;SDS011;9727;50.200;19.038;2023-08-24T10:41:48;6.72;;;3.45;;
19189;SDS011;9727;50.200;19.038;2023-08-24T10:44:25;6.75;;;3.17;;
19189;SDS011;9727;50.200;19.038;2023-08-24T10:49:59;6.10;;;3.47;;
19189;SDS011;9727;50.200;19.038;2023-08-24T10:52:30;5.70;;;3.58;;
19189;SDS011;9727;50.200;19.038;2023-08-24T10:54:57;6.47;;;3.33;;
19189;SDS011;9727;50.200;19.038;2023-08-24T10:57:27;4.85;;;3.13;;
19189;SDS011;9727;50.200;19.038;2023-08-24T11:00:00;6.47;;;3.75;;
19189;SDS011;9727;50.200;19.038;2023-08-24T11:02:31;5.30;;;3.60;;
19189;SDS011;9727;50.200;19.038;2023-08-24T11:05:15;5.35;;;3.47;;
19189;SDS011;9727;50.200;19.038;2023-08-24T11:07:48;5.25;;;3.88;;
19189;SDS011;9727;50.200;19.038;2023-08-24T11:10:15;5.60;;;3.50;;
19189;SDS011;9727;50.200;19.038;2023-08-24T11:15:31;6.20;;;3.25;;
19189;SDS011;9727;50.200;19.038;2023-08-24T11:20:45;8.82;;;4.15;;
19189;SDS011;9727;50.200;19.038;2023-08-24T11:23:12;5.43;;;4.15;;
19189;SDS011;9727;50.200;19.038;2023-08-24T11:25:39;5.63;;;3.63;;
19189;SDS011;9727;50.200;19.038;2023-08-24T11:28:05;8.57;;;3.42;;
19189;SDS011;9727;50.200;19.038;2023-08-24T11:30:38;4.80;;;3.78;;
19189;SDS011;9727;50.200;19.038;2023-08-24T11:33:04;6.25;;;3.83;;
19189;SDS011;9727;50.200;19.038;2023-08-24T11:35:38;7.18;;;3.85;;
19189;SDS011;9727;50.200;19.038;2023-08-24T11:38:07;6.90;;;4.00;;
19189;SDS011;9727;50.200;19.038;2023-08-24T11:40:37;6.97;;;3.25;;
19189;SDS011;9727;50.200;19.038;2023-08-24T11:43:04;4.85;;;3.10;;
19189;SDS011;9727;50.200;19.038;2023-08-24T11:45:31;7.00;;;3.47;;
19189;SDS011;9727;50.200;19.038;2023-08-24T11:47:58;6.50;;;3.42;;
19189;SDS011;9727;50.200;19.038;2023-08-24T11:50:25;5.38;;;3.50;;
19189;SDS011;9727;50.200;19.038;2023-08-24T11:52:52;8.43;;;3.60;;
19189;SDS011;9727;50.200;19.038;2023-08-24T11:55:20;5.75;;;3.10;;
19189;SDS011;9727;50.200;19.038;2023-08-24T11:57:47;6.03;;;3.35;;
19189;SDS011;9727;50.200;19.038;2023-08-24T12:00:13;4.13;;;3.05;;
19189;SDS011;9727;50.200;19.038;2023-08-24T12:02:41;4.78;;;3.13;;
19189;SDS011;9727;50.200;19.038;2023-08-24T12:05:19;4.90;;;3.25;;
19189;SDS011;9727;50.200;19.038;2023-08-24T12:07:46;4.93;;;3.30;;
19189;SDS011;9727;50.200;19.038;2023-08-24T12:10:15;6.28;;;3.33;;
19189;SDS011;9727;50.200;19.038;2023-08-24T12:12:43;4.95;;;3.28;;
19189;SDS011;9727;50.200;19.038;2023-08-24T12:15:19;4.75;;;3.20;;
19189;SDS011;9727;50.200;19.038;2023-08-24T12:17:46;4.88;;;3.70;;
19189;SDS011;9727;50.200;19.038;2023-08-24T12:20:20;8.52;;;4.10;;
19189;SDS011;9727;50.200;19.038;2023-08-24T12:22:51;7.63;;;3.45;;
19189;SDS011;9727;50.200;19.038;2023-08-24T12:25:18;7.30;;;3.65;;
19189;SDS011;9727;50.200;19.038;2023-08-24T12:27:46;6.65;;;3.53;;
19189;SDS011;9727;50.200;19.038;2023-08-24T12:30:13;7.30;;;3.60;;
19189;SDS011;9727;50.200;19.038;2023-08-24T12:32:43;6.97;;;4.25;;
19189;SDS011;9727;50.200;19.038;2023-08-24T12:35:14;5.65;;;3.72;;
19189;SDS011;9727;50.200;19.038;2023-08-24T12:37:44;6.50;;;3.33;;
19189;SDS011;9727;50.200;19.038;2023-08-24T12:40:10;5.93;;;3.97;;
19189;SDS011;9727;50.200;19.038;2023-08-24T12:42:38;6.60;;;4.57;;
19189;SDS011;9727;50.200;19.038;2023-08-24T12:45:06;6.82;;;3.75;;
19189;SDS011;9727;50.200;19.038;2023-08-24T12:47:39;8.55;;;3.90;;
19189;SDS011;9727;50.200;19.038;2023-08-24T12:50:06;6.32;;;4.03;;
19189;SDS011;9727;50.200;19.038;2023-08-24T12:52:39;5.72;;;3.70;;
19189;SDS011;9727;50.200;19.038;2023-08-24T12:55:06;4.95;;;3.65;;
19189;SDS011;9727;50.200;19.038;2023-08-24T12:57:32;6.10;;;4.05;;
19189;SDS011;9727;50.200;19.038;2023-08-24T13:00:02;5.47;;;3.53;;
19189;SDS011;9727;50.200;19.038;2023-08-24T13:02:31;6.10;;;4.45;;
19189;SDS011;9727;50.200;19.038;2023-08-24T13:04:57;6.20;;;4.15;;
19189;SDS011;9727;50.200;19.038;2023-08-24T13:07:26;10.75;;;4.07;;
19189;SDS011;9727;50.200;19.038;2023-08-24T13:09:53;5.55;;;3.70;;
19189;SDS011;9727;50.200;19.038;2023-08-24T13:12:19;7.50;;;3.97;;
19189;SDS011;9727;50.200;19.038;2023-08-24T13:14:46;5.80;;;3.50;;
19189;SDS011;9727;50.200;19.038;2023-08-24T13:17:13;9.43;;;4.20;;
19189;SDS011;9727;50.200;19.038;2023-08-24T13:19:41;4.88;;;3.67;;
19189;SDS011;9727;50.200;19.038;2023-08-24T13:22:08;4.57;;;3.55;;
19189;SDS011;9727;50.200;19.038;2023-08-24T13:24:35;5.25;;;3.50;;
19189;SDS011;9727;50.200;19.038;2023-08-24T13:27:05;6.28;;;3.85;;
19189;SDS011;9727;50.200;19.038;2023-08-24T13:29:38;4.47;;;3.35;;
19189;SDS011;9727;50.200;19.038;2023-08-24T13:32:06;6.53;;;3.63;;
19189;SDS011;9727;50.200;19.038;2023-08-24T13:34:32;4.07;;;3.58;;
19189;SDS011;9727;50.200;19.038;2023-08-24T13:37:04;5.80;;;3.65;;
19189;SDS011;9727;50.200;19.038;2023-08-24T13:39:31;7.05;;;3.20;;
19189;SDS011;9727;50.200;19.038;2023-08-24T13:41:58;5.72;;;3.80;;
19189;SDS011;9727;50.200;19.038;2023-08-24T13:44:25;4.45;;;3.90;;
19189;SDS011;9727;50.200;19.038;2023-08-24T13:46:52;5.57;;;3.42;;
19189;SDS011;9727;50.200;19.038;2023-08-24T13:49:19;5.22;;;3.63;;
19189;SDS011;9727;50.200;19.038;2023-08-24T13:51:46;5.07;;;2.97;;
19189;SDS011;9727;50.200;19.038;2023-08-24T13:54:14;3.95;;;2.90;;
19189;SDS011;9727;50.200;19.038;2023-08-24T13:56:41;3.70;;;3.10;;
19189;SDS011;9727;50.200;19.038;2023-08-24T13:59:08;4.60;;;3.38;;
19189;SDS011;9727;50.200;19.038;2023-08-24T14:01:37;5.95;;;3.40;;
19189;SDS011;9727;50.200;19.038;2023-08-24T14:04:05;4.10;;;3.03;;
19189;SDS011;9727;50.200;19.038;2023-08-24T14:06:32;5.22;;;3.20;;
19189;SDS011;9727;50.200;19.038;2023-08-24T14:09:03;3.92;;;2.80;;
19189;SDS011;9727;50.200;19.038;2023-08-24T14:11:32;4.97;;;3.33;;
19189;SDS011;9727;50.200;19.038;2023-08-24T14:14:02;3.88;;;2.80;;
19189;SDS011;9727;50.200;19.038;2023-08-24T14:16:29;4.80;;;3.00;;
19189;SDS011;9727;50.200;19.038;2023-08-24T14:18:56;4.75;;;2.90;;
19189;SDS011;9727;50.200;19.038;2023-08-24T14:21:22;3.63;;;2.85;;
19189;SDS011;9727;50.200;19.038;2023-08-24T14:23:49;6.50;;;3.85;;
19189;SDS011;9727;50.200;19.038;2023-08-24T14:26:16;3.58;;;2.95;;
19189;SDS011;9727;50.200;19.038;2023-08-24T14:28:51;4.65;;;2.90;;
19189;SDS011;9727;50.200;19.038;2023-08-24T14:31:18;3.70;;;2.83;;
19189;SDS011;9727;50.200;19.038;2023-08-24T14:33:45;5.85;;;3.15;;
19189;SDS011;9727;50.200;19.038;2023-08-24T14:36:12;4.50;;;3.20;;
19189;SDS011;9727;50.200;19.038;2023-08-24T14:38:38;3.72;;;2.45;;
19189;SDS011;9727;50.200;19.038;2023-08-24T14:41:06;3.97;;;3.00;;
19189;SDS011;9727;50.200;19.038;2023-08-24T14:43:36;3.60;;;2.58;;
19189;SDS011;9727;50.200;19.038;2023-08-24T14:46:05;4.78;;;2.83;;
19189;SDS011;9727;50.200;19.038;2023-08-24T14:48:31;4.20;;;2.75;;
19189;SDS011;9727;50.200;19.038;2023-08-24T14:50:58;4.80;;;2.58;;
19189;SDS011;9727;50.200;19.038;2023-08-24T14:53:25;3.85;;;2.80;;
19189;SDS011;9727;50.200;19.038;2023-08-24T14:55:52;5.00;;;3.58;;